createdAt,value
2022-08-16T00:01:24.443Z,79.10
2022-08-16T00:03:53.117Z,79.30
2022-08-16T00:06:21.421Z,79.40
2022-08-16T00:08:52.457Z,79.50
2022-08-16T00:11:20.987Z,79.80
2022-08-16T00:13:53.418Z,79.90
2022-08-16T00:17:06.638Z,80.00
2022-08-16T00:19:13.380Z,80.80
2022-08-16T00:21:42.586Z,80.20
2022-08-16T00:24:12.153Z,80.30
2022-08-16T00:26:45.070Z,80.50
2022-08-16T00:29:17.477Z,80.70
2022-08-16T00:31:59.786Z,80.70
2022-08-16T00:34:44.497Z,80.80
2022-08-16T00:37:20.389Z,80.90
2022-08-16T00:39:57.747Z,81.00
2022-08-16T00:42:30.422Z,81.20
2022-08-16T00:45:06.289Z,81.10
2022-08-16T00:47:37.952Z,81.20
2022-08-16T00:50:08.225Z,81.40
2022-08-16T00:52:46.011Z,81.50
2022-08-16T00:55:19.338Z,81.60
2022-08-16T00:57:59.639Z,81.60
2022-08-16T01:00:32.651Z,81.60
2022-08-16T01:03:04.975Z,81.60
2022-08-16T01:05:33.520Z,81.80
2022-08-16T01:08:02.550Z,81.80
2022-08-16T01:10:51.136Z,81.80
2022-08-16T01:13:22.720Z,82.00
2022-08-16T01:15:56.301Z,82.10
2022-08-16T01:18:39.998Z,82.10
2022-08-16T01:21:22.361Z,82.30
2022-08-16T01:24:52.091Z,82.20
2022-08-16T01:27:04.218Z,82.40
2022-08-16T01:29:57.932Z,82.50
2022-08-16T01:32:33.583Z,82.50
2022-08-16T01:35:05.328Z,82.60
2022-08-16T01:37:42.333Z,82.70
2022-08-16T01:40:13.762Z,82.70
2022-08-16T01:42:44.463Z,82.80
2022-08-16T01:45:19.723Z,82.70
2022-08-16T01:47:52.111Z,82.80
2022-08-16T01:51:05.048Z,82.90
2022-08-16T01:53:11.147Z,83.00
2022-08-16T01:55:42.818Z,83.00
2022-08-16T01:58:23.488Z,83.00
2022-08-16T02:00:51.369Z,83.20
2022-08-16T02:03:19.298Z,83.50
2022-08-16T02:05:52.504Z,83.60
2022-08-16T02:08:33.572Z,83.60
2022-08-16T02:11:04.750Z,83.70
2022-08-16T02:13:33.009Z,83.70
2022-08-16T02:16:01.191Z,83.90
2022-08-16T02:18:29.291Z,83.90
2022-08-16T02:20:57.160Z,83.80
2022-08-16T02:23:25.687Z,84.00
2022-08-16T02:25:59.507Z,83.80
2022-08-16T02:28:29.503Z,84.00
2022-08-16T02:31:00.450Z,83.90
2022-08-16T02:33:44.533Z,84.60
2022-08-16T02:36:47.914Z,83.80
2022-08-16T02:39:07.115Z,83.80
2022-08-16T02:41:39.468Z,83.50
2022-08-16T02:44:11.237Z,83.10
2022-08-16T02:46:50.756Z,83.00
2022-08-16T02:49:21.884Z,82.90
2022-08-16T02:52:00.038Z,82.80
2022-08-16T02:54:29.086Z,82.70
2022-08-16T02:56:56.935Z,82.80
2022-08-16T02:59:27.424Z,83.10
2022-08-16T03:02:10.281Z,83.10
2022-08-16T03:04:50.904Z,83.30
2022-08-16T03:07:27.727Z,83.60
2022-08-16T03:09:57.153Z,83.90
2022-08-16T03:12:30.353Z,84.30
2022-08-16T03:15:07.231Z,84.40
2022-08-16T03:17:36.598Z,84.70
2022-08-16T03:20:21.445Z,84.80
2022-08-16T03:23:01.848Z,85.00
2022-08-16T03:25:43.921Z,85.40
2022-08-16T03:28:12.669Z,85.50
2022-08-16T03:30:42.333Z,85.50
2022-08-16T03:33:10.183Z,85.60
2022-08-16T03:35:40.416Z,85.80
2022-08-16T03:38:34.359Z,85.90
2022-08-16T03:40:59.758Z,85.90
2022-08-16T03:43:51.543Z,85.90
2022-08-16T03:46:47.445Z,85.80
2022-08-16T03:49:11.762Z,85.80
2022-08-16T03:51:40.959Z,85.90
2022-08-16T03:54:12.330Z,86.00
2022-08-16T03:56:57.168Z,86.20
2022-08-16T03:59:25.964Z,86.30
2022-08-16T04:01:59.244Z,86.40
2022-08-16T04:04:33.391Z,86.60
2022-08-16T04:07:03.339Z,86.60
2022-08-16T04:09:35.172Z,86.70
2022-08-16T04:12:04.697Z,86.70
2022-08-16T04:14:46.605Z,86.70
2022-08-16T04:17:17.683Z,86.70
2022-08-16T04:19:46.630Z,86.70
2022-08-16T04:22:17.161Z,86.80
2022-08-16T04:24:54.854Z,86.80
2022-08-16T04:27:24.439Z,86.90
2022-08-16T04:30:03.281Z,86.90
2022-08-16T04:32:32.876Z,86.90
2022-08-16T04:35:07.597Z,87.00
2022-08-16T04:37:42.261Z,87.00
2022-08-16T04:40:20.579Z,87.10
2022-08-16T04:42:50.532Z,87.10
2022-08-16T04:45:19.584Z,87.20
2022-08-16T04:48:06.411Z,87.20
2022-08-16T04:50:34.262Z,87.20
2022-08-16T04:53:02.112Z,87.20
2022-08-16T04:55:38.403Z,87.20
2022-08-16T04:58:43.980Z,87.10
2022-08-16T05:00:55.812Z,87.00
2022-08-16T05:03:26.158Z,87.00
2022-08-16T05:05:59.184Z,87.10
2022-08-16T05:08:31.819Z,87.30
2022-08-16T05:11:05.219Z,87.40
2022-08-16T05:13:40.434Z,87.50
2022-08-16T05:16:11.885Z,87.60
2022-08-16T05:18:41.261Z,87.60
2022-08-16T05:21:11.279Z,87.70
2022-08-16T05:23:40.816Z,87.70
2022-08-16T05:26:20.114Z,87.90
2022-08-16T05:28:55.169Z,88.10
2022-08-16T05:31:24.168Z,88.10
2022-08-16T05:33:59.582Z,88.20
2022-08-16T05:36:34.347Z,88.20
2022-08-16T05:39:06.565Z,88.20
2022-08-16T05:41:45.201Z,88.40
2022-08-16T05:44:23.850Z,88.40
2022-08-16T05:46:54.668Z,88.40
2022-08-16T05:49:25.146Z,88.60
2022-08-16T05:51:55.062Z,88.60
2022-08-16T05:54:25.670Z,88.60
2022-08-16T05:56:55.803Z,88.60
2022-08-16T05:59:24.450Z,88.70
2022-08-16T06:01:55.771Z,88.60
2022-08-16T06:04:36.702Z,88.70
2022-08-16T06:07:09.097Z,88.80
2022-08-16T06:09:43.248Z,88.90
2022-08-16T06:12:27.004Z,88.80
2022-08-16T06:14:58.979Z,88.80
2022-08-16T06:17:42.465Z,88.60
2022-08-16T06:20:18.596Z,88.40
2022-08-16T06:22:58.812Z,88.20
2022-08-16T06:25:36.489Z,88.10
2022-08-16T06:28:10.269Z,88.00
2022-08-16T06:30:45.034Z,87.90
2022-08-16T06:33:22.674Z,87.70
2022-08-16T06:35:55.318Z,87.70
2022-08-16T06:38:33.351Z,87.80
2022-08-16T06:41:03.681Z,88.00
2022-08-16T06:43:31.968Z,88.20
2022-08-16T06:46:00.623Z,88.30
2022-08-16T06:48:32.686Z,87.90
2022-08-16T06:51:03.229Z,88.00
2022-08-16T06:53:35.707Z,87.90
2022-08-16T06:56:14.298Z,87.90
2022-08-16T06:58:51.005Z,88.00
2022-08-16T07:01:23.017Z,87.80
2022-08-16T07:04:11.785Z,87.80
2022-08-16T07:06:42.964Z,87.70
2022-08-16T07:09:11.894Z,87.90
2022-08-16T07:11:45.856Z,87.90
2022-08-16T07:14:24.165Z,87.70
2022-08-16T07:16:53.409Z,87.60
2022-08-16T07:19:21.226Z,87.70
2022-08-16T07:22:00.005Z,87.30
2022-08-16T07:24:30.122Z,87.00
2022-08-16T07:26:58.635Z,87.00
2022-08-16T07:29:26.449Z,86.70
2022-08-16T07:32:00.764Z,87.00
2022-08-16T07:34:35.418Z,86.90
2022-08-16T07:37:08.280Z,86.40
2022-08-16T07:39:43.313Z,85.70
2022-08-16T07:42:25.900Z,84.70
2022-08-16T07:44:57.935Z,84.40
2022-08-16T07:47:31.552Z,84.30
2022-08-16T07:49:59.845Z,84.30
2022-08-16T07:52:29.955Z,83.40
2022-08-16T07:54:58.009Z,82.70
2022-08-16T07:57:26.442Z,82.40
2022-08-16T07:59:57.170Z,81.80
2022-08-16T08:02:27.507Z,81.90
2022-08-16T08:04:56.277Z,82.10
2022-08-16T08:07:27.602Z,82.70
2022-08-16T08:09:58.169Z,82.50
2022-08-16T08:12:31.840Z,82.50
2022-08-16T08:15:05.867Z,82.70
2022-08-16T08:17:42.044Z,82.90
2022-08-16T08:20:26.184Z,83.10
2022-08-16T08:23:01.121Z,82.80
2022-08-16T08:25:53.887Z,82.30
2022-08-16T08:28:20.126Z,82.90
2022-08-16T08:30:51.543Z,83.60
2022-08-16T08:33:29.305Z,83.60
2022-08-16T08:36:00.782Z,83.10
2022-08-16T08:38:43.737Z,83.40
2022-08-16T08:41:15.466Z,82.60
2022-08-16T08:43:50.401Z,82.60
2022-08-16T08:46:21.335Z,81.80
2022-08-16T08:48:58.382Z,82.00
2022-08-16T08:51:35.663Z,82.40
2022-08-16T08:54:06.532Z,81.90
2022-08-16T08:56:37.476Z,81.50
2022-08-16T08:59:19.908Z,81.30
2022-08-16T09:01:57.175Z,81.10
2022-08-16T09:04:27.185Z,80.90
2022-08-16T09:06:55.396Z,81.10
2022-08-16T09:09:23.611Z,80.50
2022-08-16T09:11:53.665Z,80.30
2022-08-16T09:14:32.813Z,79.70
2022-08-16T09:17:14.037Z,79.60
2022-08-16T09:19:53.732Z,80.90
2022-08-16T09:22:23.741Z,80.00
2022-08-16T09:24:54.071Z,79.50
2022-08-16T09:27:57.219Z,79.70
2022-08-16T09:30:34.749Z,80.20
2022-08-16T09:33:11.884Z,80.10
2022-08-16T09:35:42.428Z,80.10
2022-08-16T09:38:31.269Z,79.70
2022-08-16T09:41:01.374Z,79.60
2022-08-16T09:44:00.102Z,79.70
2022-08-16T09:46:44.560Z,79.40
2022-08-16T09:49:08.467Z,79.20
2022-08-16T09:51:37.516Z,78.90
2022-08-16T09:54:09.835Z,78.60
2022-08-16T09:56:52.756Z,78.60
2022-08-16T09:59:25.270Z,78.60
2022-08-16T10:01:54.480Z,78.50
2022-08-16T10:04:31.698Z,78.30
2022-08-16T10:07:14.668Z,78.20
2022-08-16T10:09:53.981Z,78.20
2022-08-16T10:12:42.634Z,78.00
2022-08-16T10:15:15.351Z,78.20
2022-08-16T10:17:45.487Z,77.20
2022-08-16T10:20:28.931Z,76.80
2022-08-16T10:23:03.670Z,76.70
2022-08-16T10:27:20.843Z,76.70
2022-08-16T10:28:31.856Z,76.70
2022-08-16T10:31:03.344Z,76.50
2022-08-16T10:33:34.015Z,76.40
2022-08-16T10:36:04.882Z,76.40
2022-08-16T10:38:36.826Z,76.20
2022-08-16T10:41:07.083Z,75.90
2022-08-16T10:43:36.197Z,75.80
2022-08-16T10:46:39.396Z,75.90
2022-08-16T10:48:54.940Z,75.70
2022-08-16T10:51:33.650Z,75.10
2022-08-16T10:54:28.648Z,74.40
2022-08-16T10:56:58.308Z,74.00
2022-08-16T10:59:38.480Z,74.30
2022-08-16T11:03:37.433Z,74.30
2022-08-16T11:05:06.344Z,74.10
2022-08-16T11:07:43.802Z,74.00
2022-08-16T11:10:57.071Z,73.90
2022-08-16T11:15:57.583Z,73.50
2022-08-16T11:18:48.595Z,73.40
2022-08-16T11:21:29.533Z,73.50
2022-08-16T11:23:59.070Z,73.40
2022-08-16T11:26:28.646Z,73.20
2022-08-16T11:29:14.014Z,73.30
2022-08-16T11:31:45.859Z,73.20
2022-08-16T11:34:23.116Z,73.40
2022-08-16T11:36:59.377Z,73.30
2022-08-16T11:39:29.521Z,73.10
2022-08-16T11:41:57.773Z,72.90
2022-08-16T11:44:45.368Z,72.90
2022-08-16T11:47:14.112Z,72.90
2022-08-16T11:49:43.410Z,72.80
2022-08-16T11:52:11.273Z,72.80
2022-08-16T11:54:40.213Z,72.90
2022-08-16T11:57:08.953Z,73.10
2022-08-16T11:59:39.566Z,72.80
2022-08-16T12:02:32.143Z,71.90
2022-08-16T12:04:59.336Z,71.00
2022-08-16T12:07:29.231Z,70.90
2022-08-16T12:10:01.231Z,70.60
2022-08-16T12:12:29.210Z,70.70
2022-08-16T12:15:01.036Z,70.50
2022-08-16T12:17:31.954Z,70.40
2022-08-16T12:20:01.880Z,70.30
2022-08-16T12:22:36.564Z,70.50
2022-08-16T12:25:05.457Z,70.80
2022-08-16T12:27:33.532Z,70.90
2022-08-16T12:30:08.405Z,71.20
2022-08-16T12:32:53.282Z,71.10
2022-08-16T12:35:29.577Z,70.30
2022-08-16T12:37:59.433Z,69.60
2022-08-16T12:40:32.210Z,69.50
2022-08-16T12:43:03.267Z,69.20
2022-08-16T12:45:35.670Z,69.40
2022-08-16T12:48:33.930Z,69.70
2022-08-16T12:51:13.522Z,69.50
2022-08-16T12:53:47.392Z,69.30
2022-08-16T12:56:15.285Z,69.10
2022-08-16T12:58:49.468Z,69.20
2022-08-16T13:01:22.765Z,69.30
2022-08-16T13:04:08.247Z,68.90
2022-08-16T13:06:42.217Z,68.60
2022-08-16T13:09:20.564Z,66.60
2022-08-16T13:11:59.955Z,66.00
2022-08-16T13:14:33.523Z,64.50
2022-08-16T13:17:03.976Z,64.00
2022-08-16T13:20:03.397Z,64.20
2022-08-16T13:22:25.005Z,65.20
2022-08-16T13:24:54.399Z,63.90
2022-08-16T13:28:02.461Z,63.20
2022-08-16T13:30:35.602Z,62.90
2022-08-16T13:33:00.563Z,62.40
2022-08-16T13:35:34.394Z,62.00
2022-08-16T13:38:04.034Z,62.40
2022-08-16T13:40:34.345Z,62.50
2022-08-16T13:43:02.856Z,62.60
2022-08-16T13:45:45.184Z,62.20
2022-08-16T13:48:21.954Z,62.30
2022-08-16T13:50:53.839Z,62.10
2022-08-16T13:53:24.169Z,62.10
2022-08-16T13:55:57.617Z,62.50
2022-08-16T13:58:37.416Z,61.60
2022-08-16T14:01:16.249Z,61.30
2022-08-16T14:03:45.416Z,61.60
2022-08-16T14:06:14.862Z,61.70
2022-08-16T14:08:44.687Z,61.30
2022-08-16T14:11:27.722Z,60.70
2022-08-16T14:13:57.380Z,60.10
2022-08-16T14:16:33.765Z,58.90
2022-08-16T14:19:02.662Z,59.10
2022-08-16T14:21:34.805Z,57.20
2022-08-16T14:24:22.130Z,55.50
2022-08-16T14:26:50.741Z,55.00
2022-08-16T14:29:21.277Z,53.60
2022-08-16T14:31:53.887Z,52.30
2022-08-16T14:34:25.650Z,51.80
2022-08-16T14:36:53.970Z,50.90
2022-08-16T14:39:23.319Z,50.80
2022-08-16T14:41:53.780Z,51.30
2022-08-16T14:44:24.291Z,51.00
2022-08-16T14:46:54.183Z,50.30
2022-08-16T14:49:23.887Z,49.10
2022-08-16T14:51:52.121Z,48.90
2022-08-16T14:54:21.803Z,48.70
2022-08-16T14:56:54.954Z,48.10
2022-08-16T14:59:23.546Z,47.40
2022-08-16T15:01:58.740Z,46.90
2022-08-16T15:04:36.891Z,46.90
2022-08-16T15:07:10.916Z,46.80
2022-08-16T15:09:44.105Z,47.40
2022-08-16T15:12:30.925Z,46.50
2022-08-16T15:15:04.425Z,46.50
2022-08-16T15:17:40.511Z,45.90
2022-08-16T15:20:09.814Z,45.60
2022-08-16T15:22:40.397Z,46.40
2022-08-16T15:25:11.209Z,45.90
2022-08-16T15:27:42.158Z,46.30
2022-08-16T15:30:57.818Z,46.50
2022-08-16T15:33:03.158Z,46.90
2022-08-16T15:35:33.382Z,46.50
2022-08-16T15:38:09.080Z,46.90
2022-08-16T15:40:57.648Z,47.00
2022-08-16T15:43:39.549Z,47.10
2022-08-16T15:46:55.836Z,47.30
2022-08-16T15:49:12.437Z,47.40
2022-08-16T15:51:41.193Z,48.50
2022-08-16T15:54:21.473Z,48.80
2022-08-16T15:57:04.337Z,49.00
2022-08-16T15:59:48.656Z,49.60
2022-08-16T16:02:27.526Z,50.00
2022-08-16T16:04:56.093Z,49.90
2022-08-16T16:07:23.940Z,49.80
2022-08-16T16:09:53.334Z,49.60
2022-08-16T16:12:51.655Z,49.80
2022-08-16T16:15:11.864Z,49.90
2022-08-16T16:17:39.700Z,49.90
2022-08-16T16:20:14.633Z,50.80
2022-08-16T16:22:43.552Z,50.20
2022-08-16T16:25:11.687Z,50.40
2022-08-16T16:27:40.740Z,51.00
2022-08-16T16:30:38.141Z,51.10
2022-08-16T16:32:59.854Z,51.10
2022-08-16T16:35:30.813Z,50.70
2022-08-16T16:38:00.939Z,51.30
2022-08-16T16:40:32.605Z,51.70
2022-08-16T16:43:01.668Z,51.90
2022-08-16T16:45:33.323Z,52.00
2022-08-16T16:48:12.005Z,52.20
2022-08-16T16:50:44.562Z,52.50
2022-08-16T16:53:17.250Z,52.60
2022-08-16T16:55:47.750Z,52.50
2022-08-16T16:58:38.104Z,52.70
2022-08-16T17:01:07.787Z,52.70
2022-08-16T17:03:38.579Z,52.90
2022-08-16T17:06:09.109Z,53.20
2022-08-16T17:08:40.832Z,53.00
2022-08-16T17:11:09.561Z,52.90
2022-08-16T17:13:38.091Z,52.80
2022-08-16T17:16:08.595Z,53.40
2022-08-16T17:19:15.078Z,53.70
2022-08-16T17:21:36.945Z,54.10
2022-08-16T17:24:18.406Z,54.70
2022-08-16T17:26:49.052Z,54.80
2022-08-16T17:29:17.030Z,54.90
2022-08-16T17:31:50.321Z,54.80
2022-08-16T17:34:30.259Z,54.90
2022-08-16T17:37:00.592Z,55.40
2022-08-16T17:39:33.158Z,55.50
2022-08-16T17:42:02.458Z,55.50
2022-08-16T17:44:30.328Z,55.60
2022-08-16T17:46:59.475Z,55.80
2022-08-16T17:49:27.310Z,56.00
2022-08-16T17:51:55.125Z,56.20
2022-08-16T17:54:30.023Z,56.10
2022-08-16T17:57:00.488Z,56.20
2022-08-16T17:59:29.836Z,56.20
2022-08-16T18:01:59.169Z,56.30
2022-08-16T18:04:48.880Z,56.40
2022-08-16T18:07:15.506Z,56.90
2022-08-16T18:09:43.372Z,57.30
2022-08-16T18:12:44.205Z,57.80
2022-08-16T18:15:08.116Z,58.10
2022-08-16T18:17:37.843Z,58.30
2022-08-16T18:20:06.889Z,58.30
2022-08-16T18:22:34.843Z,58.50
2022-08-16T18:25:02.742Z,58.80
2022-08-16T18:27:32.615Z,59.10
2022-08-16T18:30:00.736Z,59.30
2022-08-16T18:32:28.577Z,59.40
2022-08-16T18:34:58.245Z,59.70
2022-08-16T18:37:26.044Z,59.90
2022-08-16T18:39:54.022Z,60.40
2022-08-16T18:42:24.444Z,60.60
2022-08-16T18:44:52.267Z,60.90
2022-08-16T18:47:20.141Z,61.00
2022-08-16T18:49:47.950Z,61.30
2022-08-16T18:52:25.010Z,61.70
2022-08-16T18:55:03.056Z,61.90
2022-08-16T18:57:41.417Z,62.20
2022-08-16T19:00:12.369Z,62.70
2022-08-16T19:02:56.098Z,63.20
2022-08-16T19:05:29.126Z,63.60
2022-08-16T19:07:58.575Z,63.90
2022-08-16T19:10:26.539Z,64.40
2022-08-16T19:12:54.512Z,64.80
2022-08-16T19:15:26.134Z,65.10
2022-08-16T19:17:54.378Z,65.10
2022-08-16T19:20:25.133Z,65.50
2022-08-16T19:23:10.099Z,65.80
2022-08-16T19:25:46.756Z,65.80
2022-08-16T19:28:46.628Z,66.30
2022-08-16T19:31:06.211Z,66.80
2022-08-16T19:33:34.130Z,67.00
2022-08-16T19:36:02.048Z,67.30
2022-08-16T19:38:30.202Z,67.70
2022-08-16T19:40:59.338Z,68.10
2022-08-16T19:43:27.128Z,68.50
2022-08-16T19:45:55.226Z,68.70
2022-08-16T19:48:23.440Z,68.90
2022-08-16T19:50:51.243Z,69.10
2022-08-16T19:53:19.638Z,69.30
2022-08-16T19:55:48.441Z,69.60
2022-08-16T19:58:17.865Z,69.80
2022-08-16T20:00:47.952Z,70.10
2022-08-16T20:03:22.347Z,70.30
2022-08-16T20:05:51.776Z,70.50
2022-08-16T20:08:20.026Z,70.70
2022-08-16T20:10:50.470Z,70.80
2022-08-16T20:13:22.657Z,71.20
2022-08-16T20:15:51.776Z,71.30
2022-08-16T20:18:24.444Z,71.50
2022-08-16T20:20:53.317Z,71.70
2022-08-16T20:23:24.904Z,72.00
2022-08-16T20:25:55.461Z,72.20
2022-08-16T20:28:39.429Z,72.40
2022-08-16T20:31:12.964Z,72.60
2022-08-16T20:33:41.072Z,72.80
2022-08-16T20:36:09.499Z,73.00
2022-08-16T20:38:46.689Z,73.20
2022-08-16T20:41:14.721Z,73.40
2022-08-16T20:43:44.085Z,73.50
2022-08-16T20:46:13.605Z,73.70
2022-08-16T20:48:41.421Z,74.00
2022-08-16T20:51:10.646Z,73.80
2022-08-16T20:53:38.818Z,73.90
2022-08-16T20:56:07.606Z,74.40
2022-08-16T20:58:35.462Z,73.50
2022-08-16T21:01:05.900Z,73.10
2022-08-16T21:03:33.905Z,73.90
2022-08-16T21:06:02.925Z,74.10
2022-08-16T21:08:53.109Z,74.40
2022-08-16T21:11:21.488Z,74.50
2022-08-16T21:13:49.383Z,74.50
2022-08-16T21:16:19.450Z,74.40
2022-08-16T21:18:47.384Z,74.40
2022-08-16T21:21:15.480Z,74.50
2022-08-16T21:23:43.377Z,74.60
2022-08-16T21:26:11.585Z,74.70
2022-08-16T21:28:43.346Z,75.00
2022-08-16T21:31:12.552Z,75.30
2022-08-16T21:33:42.518Z,75.40
2022-08-16T21:36:11.216Z,75.40
2022-08-16T21:38:39.111Z,75.40
2022-08-16T21:41:10.143Z,75.60
2022-08-16T21:43:38.185Z,75.80
2022-08-16T21:46:07.986Z,75.60
2022-08-16T21:48:40.683Z,75.50
2022-08-16T21:51:12.679Z,75.60
2022-08-16T21:53:41.803Z,75.60
2022-08-16T21:56:12.633Z,75.60
2022-08-16T21:58:44.793Z,75.40
2022-08-16T22:01:12.639Z,75.60
2022-08-16T22:03:40.548Z,75.60
2022-08-16T22:06:14.218Z,75.50
2022-08-16T22:08:50.376Z,75.40
2022-08-16T22:11:20.163Z,75.40
2022-08-16T22:13:57.953Z,75.40
2022-08-16T22:16:27.716Z,75.50
2022-08-16T22:18:55.574Z,75.40
2022-08-16T22:21:24.848Z,75.60
2022-08-16T22:23:57.798Z,75.50
2022-08-16T22:26:30.642Z,75.80
2022-08-16T22:29:00.695Z,76.00
2022-08-16T22:31:29.085Z,76.00
2022-08-16T22:33:57.242Z,76.20
2022-08-16T22:36:28.255Z,76.10
2022-08-16T22:38:58.301Z,76.20
2022-08-16T22:41:27.513Z,76.30
2022-08-16T22:43:55.554Z,76.40
2022-08-16T22:46:23.446Z,76.30
2022-08-16T22:48:51.663Z,76.50
2022-08-16T22:51:19.932Z,76.70
2022-08-16T22:53:49.239Z,76.70
2022-08-16T22:56:17.880Z,76.90
2022-08-16T22:58:45.746Z,77.00
2022-08-16T23:01:14.286Z,77.00
2022-08-16T23:03:42.732Z,77.00
2022-08-16T23:06:12.248Z,77.00
2022-08-16T23:08:41.748Z,76.90
2022-08-16T23:11:13.902Z,76.90
2022-08-16T23:13:50.110Z,76.90
2022-08-16T23:16:29.198Z,76.90
2022-08-16T23:19:02.506Z,77.10
2022-08-16T23:21:30.363Z,77.20
2022-08-16T23:23:58.324Z,77.20
2022-08-16T23:26:45.090Z,77.40
2022-08-16T23:29:24.912Z,77.50
2022-08-16T23:32:09.176Z,77.50
2022-08-16T23:34:37.064Z,77.50
2022-08-16T23:37:06.484Z,77.60
2022-08-16T23:39:35.794Z,77.60
2022-08-16T23:42:12.556Z,77.90
2022-08-16T23:44:56.254Z,78.00
2022-08-16T23:47:26.615Z,78.10
2022-08-16T23:50:02.667Z,78.20
2022-08-16T23:52:53.709Z,78.20
2022-08-16T23:55:19.703Z,78.50
2022-08-16T23:57:49.569Z,78.60
